This is the latest recevied weather packets stored in our database for station/object VK4UCZ-13. If no packets are shown the sender has not sent any weather packets the latest 10 day(s).
| Time | Temp. | Humidity | Pressure | Rain* | Wind** | Luminosity | Snow |
|---|---|---|---|---|---|---|---|
| 1788506016 | 23.89° C | 71% | 1008.2 hPa | 0 mm | - | - | - |
| 1788505416 | 23.89° C | 70% | 1008.2 hPa | 0 mm | - | - | - |
| 1788504816 | 25° C | 67% | 1007.8 hPa | 0 mm | - | - | - |
| 1788503616 | 25.56° C | 63% | 1007.9 hPa | 0 mm | - | - | - |
| 1788503016 | 25.56° C | 61% | 1007.9 hPa | 0 mm | - | - | - |
| 1788502416 | 26.11° C | 59% | 1007.8 hPa | 0 mm | - | - | - |
| 1788501816 | 26.67° C | 56% | 1007.6 hPa | 0 mm | - | - | - |
| 1788501216 | 26.67° C | 57% | 1007.3 hPa | 0 mm | - | - | - |
| 1788500016 | 27.78° C | 48% | 1007.3 hPa | 0 mm | - | - | - |
| 1788499416 | 28.89° C | 45% | 1007.1 hPa | 0 mm | - | - | - |
| 1788498816 | 29.44° C | 42% | 1007.1 hPa | 0 mm | - | - | - |
| 1788498216 | 30° C | 40% | 1007 hPa | 0 mm | - | - | - |
| 1788497616 | 32.22° C | 27% | 1006.8 hPa | 0 mm | - | - | - |
| 1788497016 | 32.22° C | 27% | 1006.7 hPa | 0 mm | - | - | - |
| 1788496416 | 31.67° C | 28% | 1006.9 hPa | 0 mm | - | - | - |
| 1788495816 | 32.78° C | 28% | 1007 hPa | 0 mm | - | - | - |
| 1788495216 | 32.78° C | 29% | 1007.2 hPa | 0 mm | - | - | - |
| 1788494616 | 32.22° C | 29% | 1007.3 hPa | 0 mm | - | - | - |
| 1788494016 | 31.67° C | 29% | 1007.3 hPa | 0 mm | - | - | - |
| 1788493416 | 32.22° C | 29% | 1007.5 hPa | 0 mm | - | - | - |
| 1788492816 | 31.67° C | 30% | 1007.7 hPa | 0 mm | - | - | - |
| 1788492216 | 32.78° C | 29% | 1007.9 hPa | 0 mm | - | - | - |
| 1788491616 | 32.22° C | 29% | 1008 hPa | 0 mm | - | - | - |
| 1788491016 | 31.67° C | 30% | 1008.1 hPa | 0 mm | - | - | - |
| 1788490416 | 31.67° C | 29% | 1008.2 hPa | 0 mm | - | - | - |
* Rain latest hour (hover to see other rain measurements)
** Current wind speed in m/s (hover to see current wind gust speed)